Terminal Aerodrome Forecast
Issued by NWS

Home | Current Version | Previous Version | Text Only | Print | Product List | Glossary On
Versions: 1 2 3 4 5 6 7 8 9 10 11 12 13 14
000
FTUS45 KABQ 010500
TAFFMN
TAF
KFMN 010526Z 0106/0206 18005KT P6SM FEW100
     FM012000 24015G25KT P6SM VCTS BKN060CB
     FM012300 27010KT P6SM VCSH BKN060
     FM020300 06010KT P6SM BKN080=

USA.gov is the U.S. government's official web portal to all federal, state and local government web resources and services.